Time;durP1;ratioP1;P1;durP2;ratioP2;P2;SDS_P1;SDS_P2;PMS_P1;PMS_P2;Temp;Humidity;BMP_temperature;BMP_pressure;BME280_temperature;BME280_humidity;BME280_pressure;Samples;Min_cycle;Max_cycle;Signal;HPM_P1;HPM_P2
2022/09/21 04:27:46;;;;;;;;;;;21.30;57.20;;;;;;5608019;22;19925;-79
2022/09/21 04:30:14;;;;;;;;;;;21.20;57.20;;;;;;5034149;28;19929;-78
2022/09/21 04:32:41;;;;;;;;;;;21.30;57.40;;;;;;5034320;28;20387;-78
2022/09/21 04:35:08;;;;;;;;;;;21.30;57.40;;;;;;5034431;28;19963;-78
2022/09/21 04:37:35;;;;;;;;;;;21.30;57.40;;;;;;5033991;28;20384;-78
2022/09/21 04:40:02;;;;;;;;;;;21.30;57.50;;;;;;5034423;28;19925;-78
2022/09/21 04:42:28;;;;;;;;;;;21.30;57.50;;;;;;5034387;28;20012;-78
2022/09/21 04:44:56;;;;;;;;;;;21.30;57.50;;;;;;5034255;28;20020;-78
2022/09/21 04:47:24;;;;;;;;;;;21.30;57.60;;;;;;5034287;28;20015;-77
2022/09/21 04:49:51;;;;;;;;;;;21.30;57.70;;;;;;5033905;28;19966;-75
2022/09/21 04:52:18;;;;;;;;;;;21.30;57.70;;;;;;5033670;28;20019;-77
2022/09/21 04:54:44;;;;;;;;;;;21.30;57.70;;;;;;5033380;28;19952;-78
2022/09/21 04:57:11;;;;;;;;;;;21.30;57.70;;;;;;5033329;28;20384;-76
2022/09/21 04:59:38;;;;;;;;;;;21.20;57.50;;;;;;5033230;28;20428;-76
2022/09/21 05:02:06;;;;;;;;;;;21.20;58.00;;;;;;5034145;28;19925;-74
2022/09/21 05:04:32;;;;;;;;;;;21.20;57.40;;;;;;5033409;28;19929;-72
2022/09/21 05:06:59;;;;;;;;;;;21.20;57.30;;;;;;5033310;28;19968;-73
2022/09/21 05:12:10;;;;;;;;;;;21.20;57.20;;;;;;5033555;28;19928;-74
2022/09/21 05:14:37;;;;;;;;;;;21.20;57.10;;;;;;5033567;28;19972;-74
2022/09/21 05:17:03;;;;;;;;;;;21.10;57.00;;;;;;5033195;28;19975;-74
2022/09/21 05:19:31;;;;;;;;;;;21.20;57.00;;;;;;5033571;28;19925;-74
2022/09/21 05:21:58;;;;;;;;;;;21.10;56.90;;;;;;5033557;28;19925;-74
2022/09/21 05:24:25;;;;;;;;;;;21.20;56.80;;;;;;5033366;28;19932;-74
2022/09/21 05:26:51;;;;;;;;;;;21.20;56.70;;;;;;5033376;28;20085;-74
2022/09/21 05:29:18;;;;;;;;;;;21.10;56.50;;;;;;5033613;28;19972;-74
2022/09/21 05:31:47;;;;;;;;;;;21.10;56.40;;;;;;5036880;28;19925;-75
2022/09/21 05:34:24;;;;;;;;;;;21.10;56.30;;;;;;5036705;28;20443;-75
2022/09/21 05:36:56;;;;;;;;;;;21.10;56.30;;;;;;5036632;28;20015;-75
2022/09/21 05:39:23;;;;;;;;;;;21.10;56.30;;;;;;5036664;28;20406;-75
2022/09/21 05:41:50;;;;;;;;;;;21.10;56.30;;;;;;5036911;28;19975;-74
2022/09/21 05:44:17;;;;;;;;;;;21.50;56.70;;;;;;5036474;28;20265;-74
2022/09/21 05:46:48;;;;;;;;;;;21.20;56.50;;;;;;5038453;28;20011;-74
2022/09/21 05:49:18;;;;;;;;;;;21.20;56.60;;;;;;5038363;28;19929;-74
2022/09/21 05:51:50;;;;;;;;;;;21.20;56.60;;;;;;5038261;28;20019;-78
2022/09/21 05:54:21;;;;;;;;;;;21.20;56.70;;;;;;5038273;28;19931;-79
2022/09/21 05:56:52;;;;;;;;;;;21.30;56.80;;;;;;5038080;28;19932;-77
2022/09/21 05:59:27;;;;;;;;;;;21.30;56.80;;;;;;5039073;28;20015;-76
2022/09/21 06:01:58;;;;;;;;;;;21.20;56.70;;;;;;5036560;28;19935;-74
2022/09/21 06:04:26;;;;;;;;;;;21.20;56.90;;;;;;5037560;28;19925;-75
2022/09/21 06:06:52;;;;;;;;;;;21.20;57.00;;;;;;5036637;28;19968;-75
2022/09/21 06:09:20;;;;;;;;;;;21.30;57.10;;;;;;5036324;28;19967;-74
2022/09/21 06:11:48;;;;;;;;;;;21.30;57.10;;;;;;5036252;28;19989;-74
2022/09/21 06:14:15;;;;;;;;;;;21.30;57.20;;;;;;5037787;28;20019;-78
2022/09/21 06:16:42;;;;;;;;;;;21.30;57.30;;;;;;5037970;28;19961;-75
2022/09/21 06:19:11;;;;;;;;;;;21.30;57.40;;;;;;5037659;28;20011;-78
2022/09/21 06:21:37;;;;;;;;;;;21.30;57.40;;;;;;5036557;28;20428;-78
2022/09/21 06:24:07;;;;;;;;;;;21.30;57.60;;;;;;5038754;28;19936;-77
2022/09/21 06:26:35;;;;;;;;;;;21.30;57.70;;;;;;5037565;28;19929;-77
2022/09/21 06:29:02;;;;;;;;;;;21.30;57.70;;;;;;5037035;28;19932;-74
2022/09/21 06:31:30;;;;;;;;;;;21.30;57.70;;;;;;5036878;28;20012;-77
2022/09/21 06:33:57;;;;;;;;;;;21.30;57.70;;;;;;5037746;28;19925;-77
2022/09/21 06:36:24;;;;;;;;;;;21.30;57.70;;;;;;5036678;28;19935;-77
2022/09/21 06:38:51;;;;;;;;;;;21.30;57.80;;;;;;5036717;28;20012;-74
2022/09/21 06:41:17;;;;;;;;;;;21.30;57.70;;;;;;5036299;28;20025;-74
2022/09/21 06:43:45;;;;;;;;;;;21.30;57.80;;;;;;5035619;28;19929;-73
2022/09/21 06:46:12;;;;;;;;;;;21.30;57.80;;;;;;5035632;28;19925;-73
2022/09/21 06:48:39;;;;;;;;;;;21.30;57.80;;;;;;5035529;28;19983;-74
2022/09/21 06:51:06;;;;;;;;;;;21.30;57.80;;;;;;5035496;28;19956;-73
2022/09/21 06:53:33;;;;;;;;;;;21.30;57.80;;;;;;5035476;28;20019;-74
2022/09/21 06:56:00;;;;;;;;;;;21.30;57.80;;;;;;5035449;28;19932;-74
2022/09/21 06:58:27;;;;;;;;;;;21.30;58.00;;;;;;5035361;28;19935;-73
2022/09/21 07:00:55;;;;;;;;;;;21.30;58.00;;;;;;5035364;28;19929;-73
2022/09/21 07:03:22;;;;;;;;;;;21.30;58.10;;;;;;5035472;28;20292;-73
2022/09/21 07:05:50;;;;;;;;;;;21.30;58.20;;;;;;5035215;28;19931;-74
2022/09/21 07:08:16;;;;;;;;;;;21.30;58.20;;;;;;5035140;28;19925;-74
2022/09/21 07:10:43;;;;;;;;;;;21.30;58.30;;;;;;5035179;28;19925;-74
2022/09/21 07:13:10;;;;;;;;;;;21.30;58.30;;;;;;5035132;28;19972;-74
2022/09/21 07:15:38;;;;;;;;;;;21.30;58.40;;;;;;5035088;28;19925;-74
2022/09/21 07:18:11;;;;;;;;;;;21.30;58.40;;;;;;5034958;28;19936;-73
2022/09/21 07:20:38;;;;;;;;;;;21.30;58.50;;;;;;5034679;28;20392;-73
2022/09/21 07:23:09;;;;;;;;;;;21.30;58.50;;;;;;5034887;28;19929;-74
2022/09/21 07:25:36;;;;;;;;;;;21.30;58.50;;;;;;5034526;28;20025;-74
2022/09/21 07:28:03;;;;;;;;;;;21.30;58.60;;;;;;5034865;28;19925;-74
2022/09/21 07:30:29;;;;;;;;;;;21.30;58.60;;;;;;5034537;28;20034;-73
2022/09/21 07:32:57;;;;;;;;;;;21.30;58.60;;;;;;5034729;28;19932;-73
2022/09/21 07:35:25;;;;;;;;;;;21.30;58.70;;;;;;5034758;28;19925;-73
2022/09/21 07:37:52;;;;;;;;;;;21.30;58.70;;;;;;5034278;28;20396;-74
2022/09/21 07:40:18;;;;;;;;;;;21.30;58.70;;;;;;5034306;28;20392;-73
2022/09/21 07:42:45;;;;;;;;;;;21.30;58.70;;;;;;5034251;28;20404;-74
2022/09/21 07:45:12;;;;;;;;;;;21.30;58.80;;;;;;5034457;28;20288;-73
2022/09/21 07:47:38;;;;;;;;;;;21.30;58.80;;;;;;5034411;28;19932;-73
2022/09/21 07:50:05;;;;;;;;;;;21.30;58.80;;;;;;5034453;28;19964;-73
2022/09/21 07:52:33;;;;;;;;;;;21.30;58.80;;;;;;5034001;28;20008;-73
2022/09/21 07:55:00;;;;;;;;;;;21.30;58.90;;;;;;5034404;28;19972;-73
2022/09/21 08:00:12;;;;;;;;;;;21.30;58.90;;;;;;5034430;28;19927;-73
2022/09/21 08:02:39;;;;;;;;;;;21.30;58.90;;;;;;5034290;28;20023;-73
2022/09/21 08:05:06;;;;;;;;;;;21.30;59.00;;;;;;5033823;28;19929;-73
2022/09/21 08:07:34;;;;;;;;;;;21.30;59.00;;;;;;5034130;28;19925;-74
2022/09/21 08:10:00;;;;;;;;;;;21.30;59.00;;;;;;5034222;28;19929;-73
2022/09/21 08:12:27;;;;;;;;;;;21.30;59.00;;;;;;5034210;28;19967;-73
2022/09/21 08:14:54;;;;;;;;;;;21.30;59.10;;;;;;5034719;28;19931;-73
2022/09/21 08:17:20;;;;;;;;;;;21.30;59.10;;;;;;5034073;28;19925;-74
2022/09/21 08:19:47;;;;;;;;;;;21.30;59.10;;;;;;5034096;28;19932;-73
2022/09/21 08:22:13;;;;;;;;;;;21.30;59.10;;;;;;5034067;28;19968;-73
2022/09/21 08:24:43;;;;;;;;;;;21.30;59.10;;;;;;5033952;28;19925;-73
2022/09/21 08:27:10;;;;;;;;;;;21.30;59.20;;;;;;5033903;28;19932;-74
2022/09/21 08:29:36;;;;;;;;;;;21.30;59.20;;;;;;5033779;28;19925;-73
2022/09/21 08:32:03;;;;;;;;;;;21.30;59.20;;;;;;5033967;28;19964;-73
2022/09/21 08:34:30;;;;;;;;;;;21.30;59.20;;;;;;5033851;28;19925;-73
2022/09/21 08:36:56;;;;;;;;;;;21.30;59.20;;;;;;5036663;28;19961;-74
2022/09/21 08:39:23;;;;;;;;;;;21.30;59.20;;;;;;5033871;28;19972;-73
2022/09/21 08:42:03;;;;;;;;;;;21.30;59.20;;;;;;5033536;28;19925;-73
2022/09/21 08:44:33;;;;;;;;;;;21.40;59.30;;;;;;5033796;28;19925;-73
2022/09/21 08:47:03;;;;;;;;;;;21.30;59.30;;;;;;5033722;28;19972;-74
2022/09/21 08:49:31;;;;;;;;;;;21.30;59.30;;;;;;5033804;28;19927;-74
2022/09/21 08:52:00;;;;;;;;;;;21.30;59.30;;;;;;5033761;28;19925;-74
2022/09/21 08:54:28;;;;;;;;;;;21.30;59.30;;;;;;5033419;28;20451;-73
2022/09/21 08:56:56;;;;;;;;;;;21.30;59.30;;;;;;5033354;28;19931;-74
2022/09/21 08:59:24;;;;;;;;;;;21.30;59.30;;;;;;5033337;28;20381;-74
2022/09/21 09:01:54;;;;;;;;;;;21.30;59.30;;;;;;5033749;28;20299;-73
2022/09/21 09:04:28;;;;;;;;;;;21.30;59.30;;;;;;5034135;28;19932;-73
2022/09/21 09:07:00;;;;;;;;;;;21.40;59.40;;;;;;5037526;28;19972;-74
2022/09/21 09:09:32;;;;;;;;;;;21.30;59.30;;;;;;5037512;28;19929;-74
2022/09/21 09:12:07;;;;;;;;;;;21.30;59.30;;;;;;5037156;28;20019;-74
2022/09/21 09:14:40;;;;;;;;;;;21.30;59.30;;;;;;5037423;28;19972;-74
2022/09/21 09:17:16;;;;;;;;;;;21.30;59.30;;;;;;5037269;28;19971;-74
2022/09/21 09:19:46;;;;;;;;;;;21.30;59.30;;;;;;5037283;28;19925;-74
2022/09/21 09:22:15;;;;;;;;;;;21.30;59.40;;;;;;5037209;28;19932;-73
2022/09/21 09:24:43;;;;;;;;;;;21.30;59.40;;;;;;5037095;28;20012;-73
2022/09/21 09:27:15;;;;;;;;;;;21.30;59.40;;;;;;5036727;28;19932;-74
2022/09/21 09:29:46;;;;;;;;;;;21.30;59.40;;;;;;5036656;28;20384;-73
2022/09/21 09:32:14;;;;;;;;;;;21.30;59.40;;;;;;5037058;28;19931;-73
2022/09/21 09:34:43;;;;;;;;;;;21.30;59.40;;;;;;5036945;28;19925;-73
2022/09/21 09:37:11;;;;;;;;;;;21.30;59.40;;;;;;5036840;28;20012;-74
2022/09/21 09:39:37;;;;;;;;;;;21.30;59.40;;;;;;5036876;28;19971;-73
2022/09/21 09:42:13;;;;;;;;;;;21.30;59.40;;;;;;5037372;28;19925;-73
2022/09/21 09:44:57;;;;;;;;;;;21.30;59.40;;;;;;5036709;28;20020;-74
2022/09/21 09:47:32;;;;;;;;;;;21.30;59.40;;;;;;5036509;28;19925;-74
2022/09/21 09:50:04;;;;;;;;;;;21.30;59.40;;;;;;5036706;28;19925;-74
2022/09/21 09:52:31;;;;;;;;;;;21.30;59.40;;;;;;5036642;28;19932;-74
2022/09/21 09:54:58;;;;;;;;;;;21.30;59.40;;;;;;5036604;28;19925;-73
2022/09/21 09:57:28;;;;;;;;;;;21.30;59.40;;;;;;5036549;28;20008;-73
2022/09/21 09:59:55;;;;;;;;;;;21.30;59.40;;;;;;5036528;28;19932;-73
2022/09/21 10:02:23;;;;;;;;;;;21.30;59.40;;;;;;5036141;28;20289;-73
2022/09/21 10:05:00;;;;;;;;;;;21.30;59.40;;;;;;5036019;28;19977;-73
2022/09/21 10:07:33;;;;;;;;;;;21.30;59.40;;;;;;5036324;28;19948;-74
2022/09/21 10:10:00;;;;;;;;;;;21.30;59.40;;;;;;5036366;28;19925;-73
2022/09/21 10:12:27;;;;;;;;;;;21.30;59.40;;;;;;5036296;28;19959;-73
2022/09/21 10:14:56;;;;;;;;;;;21.30;59.40;;;;;;5036291;28;19973;-73
2022/09/21 10:17:24;;;;;;;;;;;21.30;59.40;;;;;;5036043;28;19939;-74
2022/09/21 10:20:00;;;;;;;;;;;21.30;59.40;;;;;;5036357;28;19926;-74
2022/09/21 10:22:28;;;;;;;;;;;21.30;59.40;;;;;;5036269;28;20285;-73
2022/09/21 10:24:55;;;;;;;;;;;21.30;59.40;;;;;;5036168;28;19931;-73
2022/09/21 10:27:25;;;;;;;;;;;21.30;59.40;;;;;;5036250;28;20003;-74
2022/09/21 10:29:52;;;;;;;;;;;21.30;59.40;;;;;;5035793;28;19969;-74
2022/09/21 10:32:20;;;;;;;;;;;21.30;59.40;;;;;;5036012;28;19975;-74
2022/09/21 10:35:15;;;;;;;;;;;21.30;59.40;;;;;;5035589;28;19933;-74
2022/09/21 10:37:42;;;;;;;;;;;21.30;59.40;;;;;;5035482;28;19925;-75
2022/09/21 10:40:22;;;;;;;;;;;21.30;59.40;;;;;;5035513;28;19931;-74
2022/09/21 10:42:49;;;;;;;;;;;21.30;59.30;;;;;;5035349;28;20269;-74
2022/09/21 10:45:17;;;;;;;;;;;21.30;59.30;;;;;;5035549;28;19937;-74
2022/09/21 10:47:46;;;;;;;;;;;21.30;59.30;;;;;;5035619;28;19925;-75
2022/09/21 10:50:22;;;;;;;;;;;21.30;59.30;;;;;;5035589;28;19925;-75
2022/09/21 10:52:50;;;;;;;;;;;21.30;59.30;;;;;;5035518;28;19932;-75
2022/09/21 10:55:18;;;;;;;;;;;21.30;59.90;;;;;;5035424;28;19979;-74
2022/09/21 10:57:45;;;;;;;;;;;21.30;59.30;;;;;;5034986;28;20296;-75
2022/09/21 11:00:28;;;;;;;;;;;21.30;59.30;;;;;;5035299;28;19947;-75
2022/09/21 11:02:55;;;;;;;;;;;21.30;59.30;;;;;;5035275;28;19932;-75
2022/09/21 11:05:25;;;;;;;;;;;21.30;59.30;;;;;;5035707;28;20291;-75
2022/09/21 11:07:55;;;;;;;;;;;21.30;59.30;;;;;;5034873;28;20380;-75
2022/09/21 11:10:25;;;;;;;;;;;21.30;59.30;;;;;;5035311;28;19925;-75
2022/09/21 11:12:55;;;;;;;;;;;21.30;59.30;;;;;;5037607;28;19945;-78
2022/09/21 11:15:28;;;;;;;;;;;21.30;59.30;;;;;;5037310;28;19948;-78
2022/09/21 11:17:59;;;;;;;;;;;21.30;59.30;;;;;;5037716;28;19925;-78
2022/09/21 11:20:30;;;;;;;;;;;21.30;59.30;;;;;;5037613;28;19925;-78
2022/09/21 11:23:00;;;;;;;;;;;21.40;59.40;;;;;;5038519;28;20019;-80
2022/09/21 11:25:31;;;;;;;;;;;21.40;59.40;;;;;;5038320;28;19933;-79
2022/09/21 11:28:00;;;;;;;;;;;21.40;59.40;;;;;;5036545;28;19925;-78
2022/09/21 11:30:32;;;;;;;;;;;21.30;59.30;;;;;;5037981;28;20033;-79
2022/09/21 11:33:04;;;;;;;;;;;21.30;59.30;;;;;;5038174;28;19925;-79
2022/09/21 11:35:40;;;;;;;;;;;21.30;59.30;;;;;;5037369;28;20385;-79
2022/09/21 11:38:11;;;;;;;;;;;21.40;59.50;;;;;;5036947;28;19925;-79
2022/09/21 11:40:42;;;;;;;;;;;21.40;59.50;;;;;;5036614;28;19925;-79
2022/09/21 11:43:17;;;;;;;;;;;21.40;59.60;;;;;;5036580;28;20020;-78
2022/09/21 11:45:49;;;;;;;;;;;21.40;59.60;;;;;;5035982;28;19932;-78
2022/09/21 11:48:20;;;;;;;;;;;21.40;59.70;;;;;;5035950;28;20020;-78
2022/09/21 11:50:53;;;;;;;;;;;21.40;59.80;;;;;;5036735;28;20458;-78
2022/09/21 11:53:25;;;;;;;;;;;21.40;59.80;;;;;;5036355;28;19984;-79
2022/09/21 11:56:06;;;;;;;;;;;21.40;59.90;;;;;;5036550;28;19926;-79
2022/09/21 11:58:38;;;;;;;;;;;21.40;60.00;;;;;;5027387;28;19925;-79
2022/09/21 12:01:10;;;;;;;;;;;21.40;60.20;;;;;;5036783;28;19925;-79
2022/09/21 12:03:49;;;;;;;;;;;21.50;60.40;;;;;;5036030;28;19929;-80
2022/09/21 12:06:28;;;;;;;;;;;21.50;60.70;;;;;;5036751;28;19925;-78
2022/09/21 12:09:02;;;;;;;;;;;21.50;60.90;;;;;;5034875;28;19925;-75
2022/09/21 12:11:33;;;;;;;;;;;21.50;61.00;;;;;;5034229;28;20011;-75
2022/09/21 12:14:02;;;;;;;;;;;21.50;61.20;;;;;;5034232;28;19932;-75
2022/09/21 12:16:34;;;;;;;;;;;21.60;61.60;;;;;;5033838;28;20398;-75
2022/09/21 12:19:05;;;;;;;;;;;21.50;61.80;;;;;;5034137;28;19925;-75
2022/09/21 12:21:35;;;;;;;;;;;21.60;62.10;;;;;;5034066;28;19932;-75
2022/09/21 12:24:03;;;;;;;;;;;21.60;62.30;;;;;;5034051;28;20007;-75
2022/09/21 12:26:38;;;;;;;;;;;21.60;62.50;;;;;;5033561;28;20377;-75
2022/09/21 12:29:07;;;;;;;;;;;21.60;62.70;;;;;;5034181;28;19925;-76
2022/09/21 12:31:36;;;;;;;;;;;21.60;62.90;;;;;;5033653;28;20360;-75
2022/09/21 12:34:05;;;;;;;;;;;21.60;63.00;;;;;;5033944;28;19925;-75
2022/09/21 12:36:36;;;;;;;;;;;21.60;63.20;;;;;;5034310;28;19925;-77
2022/09/21 12:39:07;;;;;;;;;;;21.60;63.50;;;;;;5035262;28;19932;-76
2022/09/21 12:41:38;;;;;;;;;;;21.60;63.50;;;;;;5038370;28;19925;-76
2022/09/21 12:44:09;;;;;;;;;;;21.60;63.50;;;;;;5037992;28;20335;-76
2022/09/21 12:46:37;;;;;;;;;;;21.50;63.40;;;;;;5038134;28;19925;-76
2022/09/21 12:49:13;;;;;;;;;;;21.60;63.50;;;;;;5038031;28;20040;-75
2022/09/21 12:51:43;;;;;;;;;;;21.60;63.50;;;;;;5038331;28;20288;-76
2022/09/21 12:54:17;;;;;;;;;;;21.60;63.50;;;;;;5037408;28;19975;-76
2022/09/21 12:56:45;;;;;;;;;;;21.60;63.70;;;;;;5037666;28;19932;-77
2022/09/21 12:59:30;;;;;;;;;;;21.60;63.80;;;;;;5037361;28;20300;-77
2022/09/21 13:02:04;;;;;;;;;;;21.60;63.90;;;;;;5037410;28;20027;-77
2022/09/21 13:04:42;;;;;;;;;;;21.60;64.10;;;;;;5037244;28;20368;-77
2022/09/21 13:07:23;;;;;;;;;;;21.60;64.20;;;;;;5037363;28;19925;-77
2022/09/21 13:09:51;;;;;;;;;;;21.60;64.30;;;;;;5037443;28;19932;-77
2022/09/21 13:12:20;;;;;;;;;;;21.60;64.30;;;;;;5037171;28;19925;-77
2022/09/21 13:15:02;;;;;;;;;;;21.60;64.40;;;;;;5037059;28;19965;-77
2022/09/21 13:17:30;;;;;;;;;;;21.60;64.50;;;;;;5037811;28;20012;-76
2022/09/21 13:19:58;;;;;;;;;;;21.60;64.60;;;;;;5037012;28;20384;-76
2022/09/21 13:22:25;;;;;;;;;;;21.60;64.70;;;;;;5037395;28;20015;-76
2022/09/21 13:25:01;;;;;;;;;;;21.60;64.70;;;;;;5037293;28;19925;-76
2022/09/21 13:27:46;;;;;;;;;;;21.60;64.70;;;;;;5037086;28;19929;-77
2022/09/21 13:30:27;;;;;;;;;;;21.60;64.80;;;;;;5036810;28;20091;-77
2022/09/21 13:32:54;;;;;;;;;;;21.60;64.90;;;;;;5037064;28;19932;-77
2022/09/21 13:35:48;;;;;;;;;;;21.60;64.90;;;;;;5036715;28;20444;-77
2022/09/21 13:38:25;;;;;;;;;;;21.60;64.90;;;;;;5012371;28;20012;-76
2022/09/21 13:40:58;;;;;;;;;;;21.60;64.90;;;;;;5036523;28;19971;-76
2022/09/21 13:43:46;;;;;;;;;;;21.60;64.90;;;;;;5036839;28;19925;-76
2022/09/21 13:46:33;;;;;;;;;;;21.60;64.90;;;;;;5036757;28;19971;-76
2022/09/21 13:49:02;;;;;;;;;;;21.60;64.90;;;;;;5036315;28;19926;-76
2022/09/21 13:51:32;;;;;;;;;;;21.60;65.00;;;;;;5035946;28;19925;-77
2022/09/21 13:54:00;;;;;;;;;;;21.60;64.90;;;;;;5036875;28;19925;-77
2022/09/21 13:56:32;;;;;;;;;;;21.60;64.90;;;;;;5037341;28;19939;-76
2022/09/21 13:58:59;;;;;;;;;;;21.60;64.90;;;;;;5036283;28;20438;-77
2022/09/21 14:01:31;;;;;;;;;;;21.60;64.90;;;;;;5036570;28;19964;-77
2022/09/21 14:04:00;;;;;;;;;;;21.60;64.90;;;;;;5036535;28;19980;-77
2022/09/21 14:06:31;;;;;;;;;;;21.60;64.80;;;;;;5036021;28;19968;-77
2022/09/21 14:09:00;;;;;;;;;;;21.60;64.80;;;;;;5036467;28;19929;-77
2022/09/21 14:11:32;;;;;;;;;;;21.60;64.80;;;;;;5036337;28;19932;-77
2022/09/21 14:14:04;;;;;;;;;;;21.60;64.80;;;;;;5036067;28;19925;-77
2022/09/21 14:16:50;;;;;;;;;;;21.60;64.80;;;;;;5036270;28;20011;-77
2022/09/21 14:19:35;;;;;;;;;;;21.60;64.80;;;;;;5036284;28;19925;-76
2022/09/21 14:22:20;;;;;;;;;;;21.60;64.80;;;;;;5035796;28;19931;-76
2022/09/21 14:24:49;;;;;;;;;;;21.50;64.60;;;;;;5036111;28;20023;-77
2022/09/21 14:27:22;;;;;;;;;;;21.50;64.70;;;;;;5035959;28;19925;-76
2022/09/21 14:29:51;;;;;;;;;;;21.50;64.60;;;;;;5035938;28;20012;-76
2022/09/21 14:32:22;;;;;;;;;;;21.50;64.60;;;;;;5035938;28;20274;-76
2022/09/21 14:34:50;;;;;;;;;;;21.60;64.70;;;;;;5035922;28;19976;-76
2022/09/21 14:37:22;;;;;;;;;;;21.50;64.50;;;;;;5035785;28;19925;-77
2022/09/21 14:39:48;;;;;;;;;;;21.60;64.70;;;;;;5035496;28;19929;-77
2022/09/21 14:42:18;;;;;;;;;;;21.50;64.60;;;;;;5035456;28;19925;-77
2022/09/21 14:44:48;;;;;;;;;;;21.50;64.50;;;;;;5035688;28;20008;-76
2022/09/21 14:47:35;;;;;;;;;;;21.50;64.60;;;;;;5035995;28;20015;-77
2022/09/21 14:50:22;;;;;;;;;;;21.50;64.60;;;;;;5035688;28;19932;-76
2022/09/21 14:53:00;;;;;;;;;;;21.50;65.40;;;;;;5035539;28;19937;-76
2022/09/21 14:55:29;;;;;;;;;;;21.50;64.60;;;;;;5036078;28;19971;-76
2022/09/21 14:58:07;;;;;;;;;;;21.50;64.60;;;;;;5035367;28;20003;-76
2022/09/21 15:00:39;;;;;;;;;;;21.50;64.60;;;;;;5035453;28;19925;-75
2022/09/21 15:03:19;;;;;;;;;;;21.50;64.60;;;;;;5034427;28;19983;-75
2022/09/21 15:05:48;;;;;;;;;;;21.50;64.60;;;;;;5035936;28;19925;-76
2022/09/21 15:11:09;;;;;;;;;;;21.50;64.70;;;;;;5035000;28;19928;-75
2022/09/21 15:13:47;;;;;;;;;;;21.50;64.70;;;;;;5035135;28;19968;-76
2022/09/21 15:16:23;;;;;;;;;;;21.50;64.70;;;;;;5034829;28;19925;-78
2022/09/21 15:18:50;;;;;;;;;;;21.50;64.70;;;;;;5034996;28;19925;-77
2022/09/21 15:21:23;;;;;;;;;;;21.50;64.70;;;;;;5035192;28;19992;-78
2022/09/21 15:23:51;;;;;;;;;;;21.50;64.70;;;;;;5036837;28;20059;-78
2022/09/21 15:26:22;;;;;;;;;;;21.50;64.70;;;;;;5035787;28;19925;-78
2022/09/21 15:28:52;;;;;;;;;;;21.50;64.70;;;;;;5036174;28;19929;-78
2022/09/21 15:31:20;;;;;;;;;;;21.50;64.70;;;;;;5035070;28;20411;-78
2022/09/21 15:33:49;;;;;;;;;;;21.50;64.80;;;;;;5034815;28;20023;-78
2022/09/21 15:36:20;;;;;;;;;;;21.50;64.80;;;;;;5034904;28;19925;-78
2022/09/21 15:38:47;;;;;;;;;;;21.50;64.80;;;;;;5034734;28;19925;-76
2022/09/21 15:41:35;;;;;;;;;;;21.50;64.80;;;;;;5034674;28;19973;-76
2022/09/21 15:44:06;;;;;;;;;;;21.50;64.90;;;;;;5034648;28;19964;-76
2022/09/21 15:46:35;;;;;;;;;;;21.50;64.90;;;;;;5034285;28;20019;-75
2022/09/21 15:49:02;;;;;;;;;;;21.50;65.00;;;;;;5034246;28;19932;-75
2022/09/21 15:51:30;;;;;;;;;;;21.40;65.00;;;;;;5034389;28;19929;-75
2022/09/21 15:54:03;;;;;;;;;;;21.40;65.00;;;;;;5034422;28;19925;-76
2022/09/21 15:56:30;;;;;;;;;;;21.50;65.10;;;;;;5034111;28;19925;-75
2022/09/21 15:59:07;;;;;;;;;;;21.50;65.10;;;;;;5034322;28;19925;-75
2022/09/21 16:01:38;;;;;;;;;;;21.50;65.20;;;;;;5034350;28;19924;-76
2022/09/21 16:04:06;;;;;;;;;;;21.50;65.20;;;;;;5034083;28;20384;-75
2022/09/21 16:06:36;;;;;;;;;;;21.50;65.10;;;;;;5034896;28;19931;-75
2022/09/21 16:09:27;;;;;;;;;;;21.40;65.00;;;;;;5034461;28;19925;-75
2022/09/21 16:11:55;;;;;;;;;;;21.40;65.00;;;;;;5034895;28;19925;-75
2022/09/21 16:17:20;;;;;;;;;;;21.40;65.30;;;;;;5033893;28;20296;-75
2022/09/21 16:20:02;;;;;;;;;;;21.50;65.50;;;;;;5033841;28;19971;-75
2022/09/21 16:22:35;;;;;;;;;;;21.50;65.60;;;;;;5025167;28;19972;-76
2022/09/21 16:25:21;;;;;;;;;;;21.50;65.70;;;;;;5033517;28;20304;-76
2022/09/21 16:27:52;;;;;;;;;;;21.50;65.70;;;;;;5034026;28;19925;-77
2022/09/21 16:30:39;;;;;;;;;;;21.50;65.80;;;;;;5036022;28;19935;-77
2022/09/21 16:33:21;;;;;;;;;;;21.50;65.80;;;;;;5041154;28;19925;-81
2022/09/21 16:35:50;;;;;;;;;;;21.50;65.90;;;;;;5041097;28;19992;-79
2022/09/21 16:38:19;;;;;;;;;;;21.50;66.00;;;;;;5038758;28;19972;-76
2022/09/21 16:40:46;;;;;;;;;;;21.50;66.00;;;;;;5038962;28;19932;-76
2022/09/21 16:43:14;;;;;;;;;;;21.50;66.30;;;;;;5039717;28;19925;-76
2022/09/21 16:45:42;;;;;;;;;;;21.50;66.30;;;;;;5042807;28;20431;-77
2022/09/21 16:48:12;;;;;;;;;;;21.60;66.60;;;;;;5043635;28;20261;-79
2022/09/21 16:50:42;;;;;;;;;;;21.60;66.70;;;;;;5045085;28;20377;-78
2022/09/21 16:53:11;;;;;;;;;;;21.60;66.80;;;;;;5042254;28;19972;-81
2022/09/21 16:55:37;;;;;;;;;;;21.50;66.80;;;;;;5041296;28;20048;-79
2022/09/21 16:58:05;;;;;;;;;;;21.60;67.10;;;;;;5041106;28;19925;-80
2022/09/21 17:00:36;;;;;;;;;;;21.60;67.30;;;;;;5041695;28;19968;-80
2022/09/21 17:03:03;;;;;;;;;;;21.60;67.40;;;;;;5041890;28;19933;-79
2022/09/21 17:05:38;;;;;;;;;;;21.60;67.60;;;;;;5040429;28;19929;-78
2022/09/21 17:08:05;;;;;;;;;;;21.60;67.70;;;;;;5039235;28;19925;-79
2022/09/21 17:10:35;;;;;;;;;;;21.60;67.80;;;;;;5037917;28;19925;-81
2022/09/21 17:13:04;;;;;;;;;;;21.60;67.90;;;;;;5039145;28;19925;-82
2022/09/21 17:15:32;;;;;;;;;;;21.60;68.10;;;;;;5042033;28;19929;-79
2022/09/21 17:18:01;;;;;;;;;;;21.60;68.30;;;;;;5042236;28;20389;-77
2022/09/21 17:20:30;;;;;;;;;;;21.60;68.40;;;;;;5040610;28;19925;-78
2022/09/21 17:22:57;;;;;;;;;;;21.60;68.60;;;;;;5036674;28;19925;-78
2022/09/21 17:25:26;;;;;;;;;;;21.60;68.80;;;;;;5036456;28;19932;-79
2022/09/21 17:27:56;;;;;;;;;;;21.60;69.00;;;;;;5039619;28;20432;-80
2022/09/21 17:30:24;;;;;;;;;;;21.60;69.20;;;;;;5039695;28;19925;-80
2022/09/21 17:32:50;;;;;;;;;;;21.60;69.50;;;;;;5039612;28;19972;-80
2022/09/21 17:35:19;;;;;;;;;;;21.60;69.50;;;;;;5039194;28;20295;-80
2022/09/21 17:37:46;;;;;;;;;;;21.60;69.50;;;;;;5040121;28;19932;-81
2022/09/21 17:40:13;;;;;;;;;;;21.60;69.50;;;;;;5040361;28;20439;-80
2022/09/21 17:42:41;;;;;;;;;;;21.60;69.50;;;;;;5040039;28;20479;-82
2022/09/21 17:45:17;;;;;;;;;;;21.60;69.50;;;;;;5039505;28;19925;-78
2022/09/21 17:47:44;;;;;;;;;;;21.60;69.90;;;;;;5039684;28;20355;-79
2022/09/21 17:50:21;;;;;;;;;;;21.60;70.10;;;;;;5039061;28;19971;-79
2022/09/21 17:55:35;;;;;;;;;;;21.60;70.40;;;;;;5039313;28;19928;-78
2022/09/21 17:58:07;;;;;;;;;;;21.60;70.50;;;;;;5038779;28;19940;-79
2022/09/21 18:00:41;;;;;;;;;;;21.60;70.60;;;;;;5038896;28;20023;-79
2022/09/21 18:03:15;;;;;;;;;;;21.60;70.80;;;;;;5038733;28;20015;-78
2022/09/21 18:05:42;;;;;;;;;;;21.60;70.90;;;;;;5038568;28;20024;-79
2022/09/21 18:08:09;;;;;;;;;;;21.60;71.00;;;;;;5038328;28;20024;-79
2022/09/21 18:10:37;;;;;;;;;;;21.50;71.00;;;;;;5038557;28;19971;-78
2022/09/21 18:13:13;;;;;;;;;;;21.50;71.20;;;;;;5038099;28;20016;-78
2022/09/21 18:15:46;;;;;;;;;;;21.50;71.30;;;;;;5038206;28;20012;-78
2022/09/21 18:18:17;;;;;;;;;;;21.60;71.50;;;;;;5037942;28;19925;-79
2022/09/21 18:20:49;;;;;;;;;;;21.50;71.50;;;;;;5036409;28;20288;-80
2022/09/21 18:23:30;;;;;;;;;;;21.50;71.60;;;;;;5037494;28;19925;-78
2022/09/21 18:25:57;;;;;;;;;;;21.50;71.80;;;;;;5037138;28;20472;-79
2022/09/21 18:28:33;;;;;;;;;;;21.50;71.90;;;;;;5037526;28;19925;-78
2022/09/21 18:31:07;;;;;;;;;;;21.50;72.00;;;;;;5038695;28;20367;-78
2022/09/21 18:33:42;;;;;;;;;;;21.50;72.20;;;;;;5038163;28;19925;-78
2022/09/21 18:36:15;;;;;;;;;;;21.50;72.30;;;;;;5037984;28;19995;-78
2022/09/21 18:38:44;;;;;;;;;;;21.50;72.50;;;;;;5039134;28;19971;-78
2022/09/21 18:41:19;;;;;;;;;;;21.50;72.60;;;;;;5039695;28;19996;-78
2022/09/21 18:43:53;;;;;;;;;;;21.50;72.70;;;;;;5040325;28;19955;-78
2022/09/21 18:46:31;;;;;;;;;;;21.50;72.80;;;;;;5038432;28;20471;-78
2022/09/21 18:49:01;;;;;;;;;;;21.50;73.00;;;;;;5038010;28;19996;-78
2022/09/21 18:51:31;;;;;;;;;;;21.50;73.20;;;;;;5038288;28;20333;-78
2022/09/21 18:53:59;;;;;;;;;;;21.50;73.40;;;;;;5037617;28;19932;-78
2022/09/21 18:56:34;;;;;;;;;;;21.50;73.60;;;;;;5037884;28;19925;-78
2022/09/21 18:59:01;;;;;;;;;;;21.50;73.60;;;;;;5037695;28;19935;-78
2022/09/21 19:01:32;;;;;;;;;;;21.50;73.90;;;;;;5036158;28;20019;-78
2022/09/21 19:04:02;;;;;;;;;;;21.50;74.10;;;;;;5035415;28;20292;-78
2022/09/21 19:06:38;;;;;;;;;;;21.50;74.20;;;;;;5035926;28;20356;-80
2022/09/21 19:09:09;;;;;;;;;;;21.50;74.20;;;;;;5036933;28;19926;-78
2022/09/21 19:11:41;;;;;;;;;;;21.50;74.50;;;;;;5036409;28;19987;-78
2022/09/21 19:14:14;;;;;;;;;;;21.50;74.70;;;;;;5035054;28;20296;-77
2022/09/21 19:16:46;;;;;;;;;;;21.50;74.80;;;;;;5034768;28;19925;-78